<?xml version="1.0" encoding="UTF-8" standalone="no" ?>
<gpx xmlns="http://www.topografix.com/GPX/1/1" xmlns:xsi="http://www.w3.org/2001/XMLSchema-instance" xsi:schemaLocation="http://www.topografix.com/GPX/1/1 http://www.topografix.com/GPX/1/1/gpx.xsd" version="1.1" creator="VisuGPX - https://www.visugpx.com">
  <metadata>
    <name>12879787-Maison stade</name>
  </metadata>
  <trk>
    <name><![CDATA[12879787-Maison stade]]></name>
    <trkseg>
      <trkpt lat="47.91004" lon="1.96159">
        <ele>110</ele>
        <time>2021-04-17T06:00:52Z</time>
      </trkpt>
      <trkpt lat="47.91053" lon="1.96163">
        <ele>109</ele>
        <time>2021-04-17T06:01:01Z</time>
      </trkpt>
      <trkpt lat="47.91053" lon="1.96167">
        <ele>109</ele>
        <time>2021-04-17T06:01:01Z</time>
      </trkpt>
      <trkpt lat="47.91056" lon="1.96168">
        <ele>109</ele>
        <time>2021-04-17T06:01:02Z</time>
      </trkpt>
      <trkpt lat="47.91106" lon="1.9617">
        <ele>109</ele>
        <time>2021-04-17T06:01:11Z</time>
      </trkpt>
      <trkpt lat="47.91117" lon="1.96169">
        <ele>109</ele>
        <time>2021-04-17T06:01:13Z</time>
      </trkpt>
      <trkpt lat="47.91119" lon="1.96168">
        <ele>109</ele>
        <time>2021-04-17T06:01:13Z</time>
      </trkpt>
      <trkpt lat="47.91121" lon="1.96161">
        <ele>109</ele>
        <time>2021-04-17T06:01:14Z</time>
      </trkpt>
      <trkpt lat="47.91123" lon="1.96161">
        <ele>109</ele>
        <time>2021-04-17T06:01:14Z</time>
      </trkpt>
      <trkpt lat="47.91112" lon="1.96074">
        <ele>111</ele>
        <time>2021-04-17T06:01:25Z</time>
      </trkpt>
      <trkpt lat="47.91108" lon="1.96036">
        <ele>110</ele>
        <time>2021-04-17T06:01:29Z</time>
      </trkpt>
      <trkpt lat="47.91105" lon="1.95995">
        <ele>109</ele>
        <time>2021-04-17T06:01:34Z</time>
      </trkpt>
      <trkpt lat="47.91103" lon="1.95968">
        <ele>109</ele>
        <time>2021-04-17T06:01:38Z</time>
      </trkpt>
      <trkpt lat="47.911" lon="1.95944">
        <ele>109</ele>
        <time>2021-04-17T06:01:40Z</time>
      </trkpt>
      <trkpt lat="47.91099" lon="1.95931">
        <ele>109</ele>
        <time>2021-04-17T06:01:42Z</time>
      </trkpt>
      <trkpt lat="47.91099" lon="1.95918">
        <ele>108</ele>
        <time>2021-04-17T06:01:44Z</time>
      </trkpt>
      <trkpt lat="47.9109" lon="1.95777">
        <ele>109</ele>
        <time>2021-04-17T06:02:00Z</time>
      </trkpt>
      <trkpt lat="47.91089" lon="1.95674">
        <ele>108</ele>
        <time>2021-04-17T06:02:13Z</time>
      </trkpt>
      <trkpt lat="47.91088" lon="1.95646">
        <ele>108</ele>
        <time>2021-04-17T06:02:16Z</time>
      </trkpt>
      <trkpt lat="47.91084" lon="1.95607">
        <ele>108</ele>
        <time>2021-04-17T06:02:21Z</time>
      </trkpt>
      <trkpt lat="47.91065" lon="1.95468">
        <ele>109</ele>
        <time>2021-04-17T06:02:38Z</time>
      </trkpt>
      <trkpt lat="47.9105" lon="1.95346">
        <ele>108</ele>
        <time>2021-04-17T06:02:53Z</time>
      </trkpt>
      <trkpt lat="47.91049" lon="1.95329">
        <ele>108</ele>
        <time>2021-04-17T06:02:55Z</time>
      </trkpt>
      <trkpt lat="47.91049" lon="1.95302">
        <ele>108</ele>
        <time>2021-04-17T06:02:58Z</time>
      </trkpt>
      <trkpt lat="47.91053" lon="1.95286">
        <ele>108</ele>
        <time>2021-04-17T06:03:00Z</time>
      </trkpt>
      <trkpt lat="47.91055" lon="1.95281">
        <ele>108</ele>
        <time>2021-04-17T06:03:01Z</time>
      </trkpt>
      <trkpt lat="47.9106" lon="1.9528">
        <ele>108</ele>
        <time>2021-04-17T06:03:01Z</time>
      </trkpt>
      <trkpt lat="47.91062" lon="1.95278">
        <ele>108</ele>
        <time>2021-04-17T06:03:02Z</time>
      </trkpt>
      <trkpt lat="47.91065" lon="1.95276">
        <ele>108</ele>
        <time>2021-04-17T06:03:02Z</time>
      </trkpt>
      <trkpt lat="47.91068" lon="1.9527">
        <ele>108</ele>
        <time>2021-04-17T06:03:03Z</time>
      </trkpt>
      <trkpt lat="47.9107" lon="1.95266">
        <ele>108</ele>
        <time>2021-04-17T06:03:04Z</time>
      </trkpt>
      <trkpt lat="47.9107" lon="1.95258">
        <ele>108</ele>
        <time>2021-04-17T06:03:05Z</time>
      </trkpt>
      <trkpt lat="47.9107" lon="1.95253">
        <ele>108</ele>
        <time>2021-04-17T06:03:05Z</time>
      </trkpt>
      <trkpt lat="47.91068" lon="1.95248">
        <ele>108</ele>
        <time>2021-04-17T06:03:06Z</time>
      </trkpt>
      <trkpt lat="47.91065" lon="1.95243">
        <ele>108</ele>
        <time>2021-04-17T06:03:07Z</time>
      </trkpt>
      <trkpt lat="47.91061" lon="1.9524">
        <ele>108</ele>
        <time>2021-04-17T06:03:08Z</time>
      </trkpt>
      <trkpt lat="47.91058" lon="1.95238">
        <ele>108</ele>
        <time>2021-04-17T06:03:08Z</time>
      </trkpt>
      <trkpt lat="47.91056" lon="1.95233">
        <ele>108</ele>
        <time>2021-04-17T06:03:09Z</time>
      </trkpt>
      <trkpt lat="47.91055" lon="1.9523">
        <ele>108</ele>
        <time>2021-04-17T06:03:09Z</time>
      </trkpt>
      <trkpt lat="47.91031" lon="1.95192">
        <ele>107</ele>
        <time>2021-04-17T06:03:16Z</time>
      </trkpt>
      <trkpt lat="47.91021" lon="1.95182">
        <ele>107</ele>
        <time>2021-04-17T06:03:18Z</time>
      </trkpt>
      <trkpt lat="47.91005" lon="1.95152">
        <ele>106</ele>
        <time>2021-04-17T06:03:22Z</time>
      </trkpt>
      <trkpt lat="47.90981" lon="1.95109">
        <ele>107</ele>
        <time>2021-04-17T06:03:29Z</time>
      </trkpt>
      <trkpt lat="47.9098" lon="1.95103">
        <ele>107</ele>
        <time>2021-04-17T06:03:30Z</time>
      </trkpt>
      <trkpt lat="47.90977" lon="1.95096">
        <ele>107</ele>
        <time>2021-04-17T06:03:31Z</time>
      </trkpt>
      <trkpt lat="47.90875" lon="1.94907">
        <ele>105</ele>
        <time>2021-04-17T06:04:00Z</time>
      </trkpt>
      <trkpt lat="47.90861" lon="1.94879">
        <ele>105</ele>
        <time>2021-04-17T06:04:04Z</time>
      </trkpt>
      <trkpt lat="47.90859" lon="1.94873">
        <ele>106</ele>
        <time>2021-04-17T06:04:05Z</time>
      </trkpt>
      <trkpt lat="47.90853" lon="1.94862">
        <ele>106</ele>
        <time>2021-04-17T06:04:06Z</time>
      </trkpt>
      <trkpt lat="47.90845" lon="1.94848">
        <ele>106</ele>
        <time>2021-04-17T06:04:09Z</time>
      </trkpt>
      <trkpt lat="47.90846" lon="1.94846">
        <ele>106</ele>
        <time>2021-04-17T06:04:09Z</time>
      </trkpt>
      <trkpt lat="47.90847" lon="1.94844">
        <ele>106</ele>
        <time>2021-04-17T06:04:09Z</time>
      </trkpt>
      <trkpt lat="47.90724" lon="1.94612">
        <ele>107</ele>
        <time>2021-04-17T06:04:44Z</time>
      </trkpt>
      <trkpt lat="47.90664" lon="1.94497">
        <ele>108</ele>
        <time>2021-04-17T06:05:02Z</time>
      </trkpt>
      <trkpt lat="47.90634" lon="1.94442">
        <ele>106</ele>
        <time>2021-04-17T06:05:10Z</time>
      </trkpt>
      <trkpt lat="47.90632" lon="1.94441">
        <ele>106</ele>
        <time>2021-04-17T06:05:11Z</time>
      </trkpt>
      <trkpt lat="47.9063" lon="1.94438">
        <ele>106</ele>
        <time>2021-04-17T06:05:11Z</time>
      </trkpt>
      <trkpt lat="47.90618" lon="1.94416">
        <ele>105</ele>
        <time>2021-04-17T06:05:15Z</time>
      </trkpt>
      <trkpt lat="47.9061" lon="1.94405">
        <ele>105</ele>
        <time>2021-04-17T06:05:16Z</time>
      </trkpt>
      <trkpt lat="47.90606" lon="1.944">
        <ele>105</ele>
        <time>2021-04-17T06:05:17Z</time>
      </trkpt>
      <trkpt lat="47.90603" lon="1.94394">
        <ele>105</ele>
        <time>2021-04-17T06:05:18Z</time>
      </trkpt>
      <trkpt lat="47.90601" lon="1.94391">
        <ele>105</ele>
        <time>2021-04-17T06:05:19Z</time>
      </trkpt>
      <trkpt lat="47.90599" lon="1.9439">
        <ele>105</ele>
        <time>2021-04-17T06:05:19Z</time>
      </trkpt>
      <trkpt lat="47.90596" lon="1.94389">
        <ele>105</ele>
        <time>2021-04-17T06:05:20Z</time>
      </trkpt>
      <trkpt lat="47.90593" lon="1.9439">
        <ele>105</ele>
        <time>2021-04-17T06:05:20Z</time>
      </trkpt>
      <trkpt lat="47.90591" lon="1.94391">
        <ele>105</ele>
        <time>2021-04-17T06:05:21Z</time>
      </trkpt>
      <trkpt lat="47.90589" lon="1.94394">
        <ele>105</ele>
        <time>2021-04-17T06:05:21Z</time>
      </trkpt>
      <trkpt lat="47.90586" lon="1.94401">
        <ele>105</ele>
        <time>2021-04-17T06:05:22Z</time>
      </trkpt>
      <trkpt lat="47.90586" lon="1.94406">
        <ele>105</ele>
        <time>2021-04-17T06:05:23Z</time>
      </trkpt>
      <trkpt lat="47.90587" lon="1.94411">
        <ele>105</ele>
        <time>2021-04-17T06:05:23Z</time>
      </trkpt>
      <trkpt lat="47.90589" lon="1.94414">
        <ele>105</ele>
        <time>2021-04-17T06:05:24Z</time>
      </trkpt>
      <trkpt lat="47.9059" lon="1.94422">
        <ele>105</ele>
        <time>2021-04-17T06:05:25Z</time>
      </trkpt>
      <trkpt lat="47.90587" lon="1.94432">
        <ele>106</ele>
        <time>2021-04-17T06:05:26Z</time>
      </trkpt>
      <trkpt lat="47.90584" lon="1.94437">
        <ele>106</ele>
        <time>2021-04-17T06:05:27Z</time>
      </trkpt>
      <trkpt lat="47.90579" lon="1.94443">
        <ele>107</ele>
        <time>2021-04-17T06:05:28Z</time>
      </trkpt>
      <trkpt lat="47.90555" lon="1.94464">
        <ele>108</ele>
        <time>2021-04-17T06:05:33Z</time>
      </trkpt>
      <trkpt lat="47.90526" lon="1.94494">
        <ele>108</ele>
        <time>2021-04-17T06:05:39Z</time>
      </trkpt>
      <trkpt lat="47.90523" lon="1.94497">
        <ele>108</ele>
        <time>2021-04-17T06:05:40Z</time>
      </trkpt>
      <trkpt lat="47.90519" lon="1.94499">
        <ele>108</ele>
        <time>2021-04-17T06:05:41Z</time>
      </trkpt>
      <trkpt lat="47.90517" lon="1.94499">
        <ele>108</ele>
        <time>2021-04-17T06:05:41Z</time>
      </trkpt>
      <trkpt lat="47.90513" lon="1.94498">
        <ele>108</ele>
        <time>2021-04-17T06:05:42Z</time>
      </trkpt>
      <trkpt lat="47.9051" lon="1.94496">
        <ele>108</ele>
        <time>2021-04-17T06:05:42Z</time>
      </trkpt>
      <trkpt lat="47.90507" lon="1.94495">
        <ele>108</ele>
        <time>2021-04-17T06:05:43Z</time>
      </trkpt>
      <trkpt lat="47.90503" lon="1.94496">
        <ele>108</ele>
        <time>2021-04-17T06:05:44Z</time>
      </trkpt>
      <trkpt lat="47.90497" lon="1.94487">
        <ele>108</ele>
        <time>2021-04-17T06:05:45Z</time>
      </trkpt>
      <trkpt lat="47.90492" lon="1.94474">
        <ele>108</ele>
        <time>2021-04-17T06:05:47Z</time>
      </trkpt>
      <trkpt lat="47.90486" lon="1.94452">
        <ele>108</ele>
        <time>2021-04-17T06:05:50Z</time>
      </trkpt>
      <trkpt lat="47.90478" lon="1.94391">
        <ele>107</ele>
        <time>2021-04-17T06:05:57Z</time>
      </trkpt>
      <trkpt lat="47.9047" lon="1.94336">
        <ele>105</ele>
        <time>2021-04-17T06:06:04Z</time>
      </trkpt>
      <trkpt lat="47.90441" lon="1.94152">
        <ele>103</ele>
        <time>2021-04-17T06:06:26Z</time>
      </trkpt>
      <trkpt lat="47.90433" lon="1.94103">
        <ele>102</ele>
        <time>2021-04-17T06:06:32Z</time>
      </trkpt>
      <trkpt lat="47.90421" lon="1.94017">
        <ele>101</ele>
        <time>2021-04-17T06:06:43Z</time>
      </trkpt>
      <trkpt lat="47.9042" lon="1.94012">
        <ele>101</ele>
        <time>2021-04-17T06:06:44Z</time>
      </trkpt>
      <trkpt lat="47.90285" lon="1.94054">
        <ele>99</ele>
        <time>2021-04-17T06:07:08Z</time>
      </trkpt>
      <trkpt lat="47.90277" lon="1.94057">
        <ele>99</ele>
        <time>2021-04-17T06:07:10Z</time>
      </trkpt>
      <trkpt lat="47.90266" lon="1.94059">
        <ele>98</ele>
        <time>2021-04-17T06:07:12Z</time>
      </trkpt>
      <trkpt lat="47.90263" lon="1.9406">
        <ele>97</ele>
        <time>2021-04-17T06:07:12Z</time>
      </trkpt>
      <trkpt lat="47.90256" lon="1.94024">
        <ele>97</ele>
        <time>2021-04-17T06:07:17Z</time>
      </trkpt>
      <trkpt lat="47.90253" lon="1.94025">
        <ele>97</ele>
        <time>2021-04-17T06:07:17Z</time>
      </trkpt>
      <trkpt lat="47.90249" lon="1.94021">
        <ele>97</ele>
        <time>2021-04-17T06:07:18Z</time>
      </trkpt>
      <trkpt lat="47.90242" lon="1.94006">
        <ele>96</ele>
        <time>2021-04-17T06:07:20Z</time>
      </trkpt>
      <trkpt lat="47.90239" lon="1.93999">
        <ele>96</ele>
        <time>2021-04-17T06:07:21Z</time>
      </trkpt>
      <trkpt lat="47.90228" lon="1.93961">
        <ele>96</ele>
        <time>2021-04-17T06:07:26Z</time>
      </trkpt>
      <trkpt lat="47.90215" lon="1.93921">
        <ele>96</ele>
        <time>2021-04-17T06:07:31Z</time>
      </trkpt>
      <trkpt lat="47.90189" lon="1.93843">
        <ele>97</ele>
        <time>2021-04-17T06:07:42Z</time>
      </trkpt>
      <trkpt lat="47.90169" lon="1.93777">
        <ele>99</ele>
        <time>2021-04-17T06:07:50Z</time>
      </trkpt>
      <trkpt lat="47.90139" lon="1.93694">
        <ele>98</ele>
        <time>2021-04-17T06:08:02Z</time>
      </trkpt>
      <trkpt lat="47.90098" lon="1.93558">
        <ele>99</ele>
        <time>2021-04-17T06:08:19Z</time>
      </trkpt>
      <trkpt lat="47.90089" lon="1.93516">
        <ele>99</ele>
        <time>2021-04-17T06:08:25Z</time>
      </trkpt>
      <trkpt lat="47.90077" lon="1.93415">
        <ele>99</ele>
        <time>2021-04-17T06:08:37Z</time>
      </trkpt>
      <trkpt lat="47.90059" lon="1.9321">
        <ele>98</ele>
        <time>2021-04-17T06:09:02Z</time>
      </trkpt>
      <trkpt lat="47.90057" lon="1.93183">
        <ele>97</ele>
        <time>2021-04-17T06:09:05Z</time>
      </trkpt>
      <trkpt lat="47.9005" lon="1.93122">
        <ele>97</ele>
        <time>2021-04-17T06:09:12Z</time>
      </trkpt>
      <trkpt lat="47.90049" lon="1.9311">
        <ele>97</ele>
        <time>2021-04-17T06:09:14Z</time>
      </trkpt>
      <trkpt lat="47.90044" lon="1.93098">
        <ele>97</ele>
        <time>2021-04-17T06:09:15Z</time>
      </trkpt>
      <trkpt lat="47.90043" lon="1.93094">
        <ele>97</ele>
        <time>2021-04-17T06:09:16Z</time>
      </trkpt>
      <trkpt lat="47.90039" lon="1.93059">
        <ele>98</ele>
        <time>2021-04-17T06:09:20Z</time>
      </trkpt>
      <trkpt lat="47.90018" lon="1.92929">
        <ele>97</ele>
        <time>2021-04-17T06:09:36Z</time>
      </trkpt>
      <trkpt lat="47.90018" lon="1.92922">
        <ele>97</ele>
        <time>2021-04-17T06:09:37Z</time>
      </trkpt>
      <trkpt lat="47.90016" lon="1.92917">
        <ele>97</ele>
        <time>2021-04-17T06:09:38Z</time>
      </trkpt>
      <trkpt lat="47.89958" lon="1.92579">
        <ele>96</ele>
        <time>2021-04-17T06:10:19Z</time>
      </trkpt>
      <trkpt lat="47.89887" lon="1.92154">
        <ele>95</ele>
        <time>2021-04-17T06:11:11Z</time>
      </trkpt>
      <trkpt lat="47.89875" lon="1.92079">
        <ele>95</ele>
        <time>2021-04-17T06:11:21Z</time>
      </trkpt>
      <trkpt lat="47.89883" lon="1.92076">
        <ele>95</ele>
        <time>2021-04-17T06:11:22Z</time>
      </trkpt>
      <trkpt lat="47.89884" lon="1.92065">
        <ele>96</ele>
        <time>2021-04-17T06:11:23Z</time>
      </trkpt>
      <trkpt lat="47.89896" lon="1.9206">
        <ele>97</ele>
        <time>2021-04-17T06:11:26Z</time>
      </trkpt>
      <trkpt lat="47.89898" lon="1.92059">
        <ele>97</ele>
        <time>2021-04-17T06:11:26Z</time>
      </trkpt>
      <trkpt lat="47.89899" lon="1.92054">
        <ele>97</ele>
        <time>2021-04-17T06:11:27Z</time>
      </trkpt>
      <trkpt lat="47.89901" lon="1.9205">
        <ele>97</ele>
        <time>2021-04-17T06:11:27Z</time>
      </trkpt>
      <trkpt lat="47.89904" lon="1.92047">
        <ele>97</ele>
        <time>2021-04-17T06:11:28Z</time>
      </trkpt>
      <trkpt lat="47.89948" lon="1.92034">
        <ele>100</ele>
        <time>2021-04-17T06:11:36Z</time>
      </trkpt>
      <trkpt lat="47.89949" lon="1.92041">
        <ele>100</ele>
        <time>2021-04-17T06:11:37Z</time>
      </trkpt>
      <trkpt lat="47.89947" lon="1.92046">
        <ele>100</ele>
        <time>2021-04-17T06:11:37Z</time>
      </trkpt>
      <trkpt lat="47.8993" lon="1.92056">
        <ele>99</ele>
        <time>2021-04-17T06:11:41Z</time>
      </trkpt>
      <trkpt lat="47.89926" lon="1.92051">
        <ele>99</ele>
        <time>2021-04-17T06:11:42Z</time>
      </trkpt>
      <trkpt lat="47.89909" lon="1.92032">
        <ele>98</ele>
        <time>2021-04-17T06:11:45Z</time>
      </trkpt>
      <trkpt lat="47.89347" lon="1.92206">
        <ele>98</ele>
        <time>2021-04-17T06:13:27Z</time>
      </trkpt>
      <trkpt lat="47.89313" lon="1.92215">
        <ele>98</ele>
        <time>2021-04-17T06:13:34Z</time>
      </trkpt>
      <trkpt lat="47.89295" lon="1.92226">
        <ele>98</ele>
        <time>2021-04-17T06:13:37Z</time>
      </trkpt>
      <trkpt lat="47.8926" lon="1.92245">
        <ele>97</ele>
        <time>2021-04-17T06:13:44Z</time>
      </trkpt>
      <trkpt lat="47.89173" lon="1.92301">
        <ele>98</ele>
        <time>2021-04-17T06:14:01Z</time>
      </trkpt>
      <trkpt lat="47.89123" lon="1.9233">
        <ele>97</ele>
        <time>2021-04-17T06:14:10Z</time>
      </trkpt>
      <trkpt lat="47.89056" lon="1.92351">
        <ele>96</ele>
        <time>2021-04-17T06:14:22Z</time>
      </trkpt>
      <trkpt lat="47.88986" lon="1.92379">
        <ele>95</ele>
        <time>2021-04-17T06:14:35Z</time>
      </trkpt>
      <trkpt lat="47.8898" lon="1.92379">
        <ele>95</ele>
        <time>2021-04-17T06:14:36Z</time>
      </trkpt>
      <trkpt lat="47.88971" lon="1.92371">
        <ele>95</ele>
        <time>2021-04-17T06:14:38Z</time>
      </trkpt>
      <trkpt lat="47.88959" lon="1.92354">
        <ele>95</ele>
        <time>2021-04-17T06:14:41Z</time>
      </trkpt>
      <trkpt lat="47.8895" lon="1.92349">
        <ele>95</ele>
        <time>2021-04-17T06:14:43Z</time>
      </trkpt>
      <trkpt lat="47.88947" lon="1.92345">
        <ele>95</ele>
        <time>2021-04-17T06:14:44Z</time>
      </trkpt>
      <trkpt lat="47.88939" lon="1.92322">
        <ele>95</ele>
        <time>2021-04-17T06:14:47Z</time>
      </trkpt>
      <trkpt lat="47.88931" lon="1.92321">
        <ele>95</ele>
        <time>2021-04-17T06:14:48Z</time>
      </trkpt>
      <trkpt lat="47.88919" lon="1.92323">
        <ele>95</ele>
        <time>2021-04-17T06:14:50Z</time>
      </trkpt>
      <trkpt lat="47.88911" lon="1.9233">
        <ele>95</ele>
        <time>2021-04-17T06:14:52Z</time>
      </trkpt>
      <trkpt lat="47.889" lon="1.92342">
        <ele>95</ele>
        <time>2021-04-17T06:14:54Z</time>
      </trkpt>
      <trkpt lat="47.88827" lon="1.92382">
        <ele>94</ele>
        <time>2021-04-17T06:15:08Z</time>
      </trkpt>
      <trkpt lat="47.88786" lon="1.92401">
        <ele>93</ele>
        <time>2021-04-17T06:15:16Z</time>
      </trkpt>
      <trkpt lat="47.88714" lon="1.92424">
        <ele>92</ele>
        <time>2021-04-17T06:15:29Z</time>
      </trkpt>
      <trkpt lat="47.88656" lon="1.92435">
        <ele>92</ele>
        <time>2021-04-17T06:15:39Z</time>
      </trkpt>
      <trkpt lat="47.88649" lon="1.92434">
        <ele>92</ele>
        <time>2021-04-17T06:15:40Z</time>
      </trkpt>
      <trkpt lat="47.88638" lon="1.92431">
        <ele>92</ele>
        <time>2021-04-17T06:15:42Z</time>
      </trkpt>
      <trkpt lat="47.88634" lon="1.9243">
        <ele>92</ele>
        <time>2021-04-17T06:15:43Z</time>
      </trkpt>
      <trkpt lat="47.88631" lon="1.92431">
        <ele>93</ele>
        <time>2021-04-17T06:15:44Z</time>
      </trkpt>
      <trkpt lat="47.88621" lon="1.92438">
        <ele>93</ele>
        <time>2021-04-17T06:15:46Z</time>
      </trkpt>
      <trkpt lat="47.88581" lon="1.92433">
        <ele>93</ele>
        <time>2021-04-17T06:15:53Z</time>
      </trkpt>
      <trkpt lat="47.88556" lon="1.92428">
        <ele>93</ele>
        <time>2021-04-17T06:15:57Z</time>
      </trkpt>
      <trkpt lat="47.88528" lon="1.92431">
        <ele>92</ele>
        <time>2021-04-17T06:16:02Z</time>
      </trkpt>
      <trkpt lat="47.8852" lon="1.92432">
        <ele>92</ele>
        <time>2021-04-17T06:16:04Z</time>
      </trkpt>
      <trkpt lat="47.88517" lon="1.9243">
        <ele>92</ele>
        <time>2021-04-17T06:16:04Z</time>
      </trkpt>
      <trkpt lat="47.8851" lon="1.92426">
        <ele>92</ele>
        <time>2021-04-17T06:16:06Z</time>
      </trkpt>
      <trkpt lat="47.88506" lon="1.92421">
        <ele>92</ele>
        <time>2021-04-17T06:16:07Z</time>
      </trkpt>
      <trkpt lat="47.88492" lon="1.9241">
        <ele>92</ele>
        <time>2021-04-17T06:16:09Z</time>
      </trkpt>
      <trkpt lat="47.88479" lon="1.92403">
        <ele>92</ele>
        <time>2021-04-17T06:16:12Z</time>
      </trkpt>
      <trkpt lat="47.88465" lon="1.92401">
        <ele>92</ele>
        <time>2021-04-17T06:16:14Z</time>
      </trkpt>
      <trkpt lat="47.88448" lon="1.92407">
        <ele>92</ele>
        <time>2021-04-17T06:16:17Z</time>
      </trkpt>
      <trkpt lat="47.88431" lon="1.92417">
        <ele>92</ele>
        <time>2021-04-17T06:16:21Z</time>
      </trkpt>
      <trkpt lat="47.88423" lon="1.92422">
        <ele>92</ele>
        <time>2021-04-17T06:16:22Z</time>
      </trkpt>
      <trkpt lat="47.8842" lon="1.92421">
        <ele>92</ele>
        <time>2021-04-17T06:16:23Z</time>
      </trkpt>
      <trkpt lat="47.88411" lon="1.92421">
        <ele>92</ele>
        <time>2021-04-17T06:16:24Z</time>
      </trkpt>
      <trkpt lat="47.88403" lon="1.92417">
        <ele>92</ele>
        <time>2021-04-17T06:16:26Z</time>
      </trkpt>
      <trkpt lat="47.8839" lon="1.92413">
        <ele>92</ele>
        <time>2021-04-17T06:16:28Z</time>
      </trkpt>
      <trkpt lat="47.88312" lon="1.92425">
        <ele>93</ele>
        <time>2021-04-17T06:16:42Z</time>
      </trkpt>
      <trkpt lat="47.88276" lon="1.92438">
        <ele>94</ele>
        <time>2021-04-17T06:16:49Z</time>
      </trkpt>
      <trkpt lat="47.88221" lon="1.92462">
        <ele>94</ele>
        <time>2021-04-17T06:16:59Z</time>
      </trkpt>
      <trkpt lat="47.88181" lon="1.92486">
        <ele>95</ele>
        <time>2021-04-17T06:17:07Z</time>
      </trkpt>
      <trkpt lat="47.88108" lon="1.92546">
        <ele>94</ele>
        <time>2021-04-17T06:17:22Z</time>
      </trkpt>
      <trkpt lat="47.87997" lon="1.92647">
        <ele>88</ele>
        <time>2021-04-17T06:17:45Z</time>
      </trkpt>
      <trkpt lat="47.87929" lon="1.92712">
        <ele>92</ele>
        <time>2021-04-17T06:17:59Z</time>
      </trkpt>
      <trkpt lat="47.87909" lon="1.92725">
        <ele>92</ele>
        <time>2021-04-17T06:18:03Z</time>
      </trkpt>
      <trkpt lat="47.87855" lon="1.92761">
        <ele>93</ele>
        <time>2021-04-17T06:18:13Z</time>
      </trkpt>
      <trkpt lat="47.87802" lon="1.92791">
        <ele>93</ele>
        <time>2021-04-17T06:18:24Z</time>
      </trkpt>
      <trkpt lat="47.8771" lon="1.92836">
        <ele>92</ele>
        <time>2021-04-17T06:18:41Z</time>
      </trkpt>
      <trkpt lat="47.87545" lon="1.92918">
        <ele>91</ele>
        <time>2021-04-17T06:19:12Z</time>
      </trkpt>
      <trkpt lat="47.87409" lon="1.92997">
        <ele>92</ele>
        <time>2021-04-17T06:19:38Z</time>
      </trkpt>
      <trkpt lat="47.87291" lon="1.93051">
        <ele>93</ele>
        <time>2021-04-17T06:20:00Z</time>
      </trkpt>
      <trkpt lat="47.87271" lon="1.93055">
        <ele>93</ele>
        <time>2021-04-17T06:20:03Z</time>
      </trkpt>
      <trkpt lat="47.8722" lon="1.93067">
        <ele>93</ele>
        <time>2021-04-17T06:20:12Z</time>
      </trkpt>
      <trkpt lat="47.87187" lon="1.93072">
        <ele>93</ele>
        <time>2021-04-17T06:20:18Z</time>
      </trkpt>
      <trkpt lat="47.87142" lon="1.93072">
        <ele>93</ele>
        <time>2021-04-17T06:20:26Z</time>
      </trkpt>
      <trkpt lat="47.87104" lon="1.92985">
        <ele>94</ele>
        <time>2021-04-17T06:20:39Z</time>
      </trkpt>
      <trkpt lat="47.87105" lon="1.92967">
        <ele>95</ele>
        <time>2021-04-17T06:20:41Z</time>
      </trkpt>
      <trkpt lat="47.87107" lon="1.92947">
        <ele>95</ele>
        <time>2021-04-17T06:20:43Z</time>
      </trkpt>
      <trkpt lat="47.87122" lon="1.92914">
        <ele>95</ele>
        <time>2021-04-17T06:20:48Z</time>
      </trkpt>
      <trkpt lat="47.87123" lon="1.92904">
        <ele>95</ele>
        <time>2021-04-17T06:20:49Z</time>
      </trkpt>
      <trkpt lat="47.87128" lon="1.92902">
        <ele>95</ele>
        <time>2021-04-17T06:20:50Z</time>
      </trkpt>
      <trkpt lat="47.87171" lon="1.92818">
        <ele>94</ele>
        <time>2021-04-17T06:21:03Z</time>
      </trkpt>
    </trkseg>
  </trk>
</gpx>